Cordell Hull Observed Data For Previous 48 Hours

Caption
Day and Hour Reservoir Elevation (behind dam)* Tailwater Elevation (below dam)* Average Hourly Discharge*
4/22/2018 1 AM CDT 502.17 458.67 31,655
4/22/2018 2 AM CDT 502.18 458.68 31,655
4/22/2018 3 AM CDT 502.17 458.67 31,280
4/22/2018 4 AM CDT 502.18 458.68 31,655
4/22/2018 5 AM CDT 502.17 458.67 31,655
4/22/2018 6 AM CDT 502.17 458.67 31,280
4/22/2018 7 AM CDT 502.17 458.67 31,655
4/22/2018 8 AM CDT 502.17 458.67 31,655
4/22/2018 9 AM CDT 502.16 458.66 31,655
4/22/2018 10 AM CDT 502.15 458.65 31,655
4/22/2018 11 AM CDT 502.15 458.65 31,655
4/22/2018 12 PM CDT 502.15 458.65 31,655
4/22/2018 1 PM CDT 502.14 458.64 31,280
4/22/2018 2 PM CDT 502.13 458.63 30,930
4/22/2018 3 PM CDT 502.14 458.64 31,655
4/22/2018 4 PM CDT 502.16 458.66 31,655
4/22/2018 5 PM CDT 502.15 458.65 31,655
4/22/2018 6 PM CDT 502.14 458.64 31,655
4/22/2018 7 PM CDT 502.14 458.64 31,655
4/22/2018 8 PM CDT 502.15 458.65 31,655
4/22/2018 9 PM CDT 502.15 458.65 31,655
4/22/2018 10 PM CDT 502.15 458.65 31,655
4/22/2018 11 PM CDT 502.15 458.65 31,655
4/23/2018 12 AM CDT 502.15 458.65 31,655
4/23/2018 1 AM CDT 502.18 458.78 31,710
4/23/2018 2 AM CDT 502.19 458.89 31,380
4/23/2018 3 AM CDT 502.19 458.99 32,120
4/23/2018 4 AM CDT 502.19 458.99 31,820
4/23/2018 5 AM CDT 502.19 459.09 31,130
4/23/2018 6 AM CDT 502.19 459.09 31,130
4/23/2018 7 AM CDT 502.20 459.09 31,130
4/23/2018 8 AM CDT 502.21 459.19 31,180
4/23/2018 9 AM CDT 502.21 459.19 31,180
4/23/2018 10 AM CDT 502.22 459.22 31,180
4/23/2018 11 AM CDT 502.35 458.55 26,005
4/23/2018 12 PM CDT 502.38 458.38 25,605
4/23/2018 1 PM CDT 502.38 458.28 26,155
4/23/2018 2 PM CDT 502.35 458.25 26,155
4/23/2018 3 PM CDT 502.45 458.15 26,055
4/23/2018 4 PM CDT 502.51 458.11 26,005
4/23/2018 5 PM CDT 502.54 458.04 25,955
4/23/2018 6 PM CDT 502.57 458.07 25,955
4/23/2018 7 PM CDT 502.61 458.01 26,545
4/23/2018 8 PM CDT 502.65 457.95 26,485
4/23/2018 9 PM CDT 502.69 457.94 26,322
4/23/2018 10 PM CDT 502.72 457.92 26,160
4/23/2018 11 PM CDT 502.76 457.96 26,470
4/24/2018 12 AM CDT 502.79 457.99 26,160
4/24/2018 1 AM CDT 502.84 457.94 26,105
4/24/2018 2 AM CDT 502.89 457.99 26,410
4/24/2018 3 AM CDT 502.95 457.95 26,050
4/24/2018 4 AM CDT 503.00 458.00 26,050
4/24/2018 5 AM CDT 503.06 458.06 25,750
4/24/2018 6 AM CDT 503.11 458.01 25,690
4/24/2018 7 AM CDT 503.20 457.90 25,570
4/24/2018 8 AM CDT 503.25 457.95 25,570
4/24/2018 9 AM CDT 503.32 458.02 25,570
4/24/2018 10 AM CDT 503.38 458.08 25,915
4/24/2018 11 AM CDT 503.47 457.97 25,795
4/24/2018 12 PM CDT 503.51 457.91 25,735
4/24/2018 1 PM CDT 503.60 457.80 25,315
4/24/2018 2 PM CDT 503.65 457.75 25,255
4/24/2018 3 PM CDT 503.72 457.72 25,495
4/24/2018 4 PM CDT 503.80 457.70 25,445
4/24/2018 5 PM CDT 503.85 457.55 25,345
4/24/2018 6 PM CDT 503.93 457.53 25,295
4/24/2018 7 PM CDT 504.02 457.62 25,295
4/24/2018 8 PM CDT 504.12 457.62 25,290

Elevations are in feet above sea level. Discharges are in cubic feet per second and are reported at the end of the hour.